Time;durP1;ratioP1;P1;durP2;ratioP2;P2;SDS_P1;SDS_P2;PMS_P1;PMS_P2;Temp;Humidity;BMP_temperature;BMP_pressure;BME280_temperature;BME280_humidity;BME280_pressure;Samples;Min_cycle;Max_cycle;Signal;HPM_P1;HPM_P2
2022/07/09 00:01:27;;;;;;;2.72;1.90;;;23.10;55.20;;;;;;5018736;28;20454;-67
2022/07/09 00:03:52;;;;;;;2.50;1.92;;;23.10;55.20;;;;;;5019557;28;20412;-67
2022/07/09 00:06:19;;;;;;;3.00;1.73;;;23.10;55.20;;;;;;5019857;28;20436;-72
2022/07/09 00:08:44;;;;;;;2.95;1.90;;;23.00;55.10;;;;;;5021001;28;20476;-71
2022/07/09 00:11:10;;;;;;;2.22;1.80;;;23.10;55.30;;;;;;5021175;28;20987;-73
2022/07/09 00:13:36;;;;;;;3.40;1.80;;;23.10;55.30;;;;;;5018622;28;20909;-68
2022/07/09 00:16:02;;;;;;;1.93;1.73;;;23.10;55.30;;;;;;5018991;28;20873;-67
2022/07/09 00:18:28;;;;;;;2.03;1.80;;;23.00;55.20;;;;;;5017730;28;20523;-72
2022/07/09 00:20:55;;;;;;;2.40;2.10;;;23.00;55.20;;;;;;5021620;28;20502;-67
2022/07/09 00:23:21;;;;;;;2.17;1.80;;;23.10;55.30;;;;;;5022165;28;20430;-73
2022/07/09 00:25:46;;;;;;;2.80;2.07;;;23.00;55.20;;;;;;5020691;28;20389;-73
2022/07/09 00:28:12;;;;;;;3.30;1.80;;;23.10;55.30;;;;;;5018484;28;20401;-67
2022/07/09 00:30:38;;;;;;;2.50;2.00;;;23.00;55.20;;;;;;5020696;28;21269;-69
2022/07/09 00:33:03;;;;;;;2.47;1.90;;;23.00;55.30;;;;;;5019551;28;20407;-73
2022/07/09 00:35:29;;;;;;;2.73;1.90;;;23.00;55.20;;;;;;5019331;28;20409;-67
2022/07/09 00:37:58;;;;;;;2.50;1.90;;;23.00;55.80;;;;;;5019520;28;20862;-71
2022/07/09 00:40:24;;;;;;;2.20;2.00;;;23.00;55.30;;;;;;5018949;28;20412;-72
2022/07/09 00:42:49;;;;;;;3.53;2.10;;;23.00;55.30;;;;;;5018476;28;20441;-69
2022/07/09 00:45:17;;;;;;;2.83;1.90;;;23.00;55.30;;;;;;5020532;28;20434;-69
2022/07/09 00:47:43;;;;;;;2.00;1.73;;;23.00;55.30;;;;;;5018647;28;20400;-68
2022/07/09 00:50:09;;;;;;;2.40;1.73;;;23.00;55.30;;;;;;5019418;28;20400;-69
2022/07/09 00:52:37;;;;;;;2.30;1.80;;;23.00;55.30;;;;;;5018464;28;20813;-70
2022/07/09 00:55:04;;;;;;;2.75;1.95;;;23.00;55.30;;;;;;5017748;28;20397;-71
2022/07/09 00:57:31;;;;;;;2.10;1.90;;;23.00;55.30;;;;;;5018701;28;20431;-72
2022/07/09 00:59:57;;;;;;;2.75;2.05;;;23.00;55.30;;;;;;5018448;28;20490;-71
2022/07/09 01:02:23;;;;;;;2.40;2.00;;;23.00;55.30;;;;;;5019428;28;20425;-68
2022/07/09 01:04:49;;;;;;;2.00;1.70;;;23.00;55.30;;;;;;5018149;28;20479;-67
2022/07/09 01:07:14;;;;;;;2.78;1.92;;;23.00;55.30;;;;;;5019430;28;20434;-72
2022/07/09 01:09:41;;;;;;;2.60;1.97;;;23.00;55.30;;;;;;5020499;28;20402;-73
2022/07/09 01:12:07;;;;;;;2.22;2.03;;;23.00;55.30;;;;;;5019662;28;20403;-73
2022/07/09 01:14:33;;;;;;;2.55;2.00;;;23.00;55.30;;;;;;5016589;28;20400;-74
2022/07/09 01:17:00;;;;;;;2.70;2.10;;;23.00;55.30;;;;;;5019480;28;20415;-67
2022/07/09 01:19:27;;;;;;;2.60;2.03;;;23.00;55.30;;;;;;5017534;28;20391;-73
2022/07/09 01:21:53;;;;;;;2.70;2.00;;;23.00;55.30;;;;;;5018470;28;20423;-71
2022/07/09 01:24:19;;;;;;;2.35;2.08;;;23.00;55.30;;;;;;5014243;28;20404;-70
2022/07/09 01:26:45;;;;;;;2.65;1.90;;;23.00;55.30;;;;;;5018947;28;20427;-68
2022/07/09 01:29:11;;;;;;;3.22;1.90;;;23.00;55.30;;;;;;5017185;28;20435;-73
2022/07/09 01:31:37;;;;;;;2.43;2.03;;;22.90;55.30;;;;;;5019943;28;20411;-69
2022/07/09 01:34:02;;;;;;;2.20;2.00;;;23.00;55.40;;;;;;5017600;28;20414;-70
2022/07/09 01:36:28;;;;;;;2.75;1.98;;;23.00;55.30;;;;;;5017922;28;20395;-71
2022/07/09 01:38:54;;;;;;;2.58;1.60;;;23.00;55.40;;;;;;5018731;28;20824;-68
2022/07/09 01:41:19;;;;;;;1.87;1.67;;;23.00;55.30;;;;;;5016539;28;20413;-67
2022/07/09 01:43:45;;;;;;;2.88;1.50;;;22.90;55.30;;;;;;5017109;28;20469;-72
2022/07/09 01:46:10;;;;;;;2.08;1.88;;;23.00;55.40;;;;;;5017515;28;20449;-70
2022/07/09 01:48:38;;;;;;;1.87;1.67;;;22.90;55.30;;;;;;5020258;28;20516;-67
2022/07/09 01:51:04;;;;;;;2.60;1.95;;;22.90;55.30;;;;;;5018115;28;20398;-72
2022/07/09 01:53:30;;;;;;;2.40;1.80;;;22.90;55.30;;;;;;5019779;28;20399;-67
2022/07/09 01:55:55;;;;;;;2.28;1.90;;;22.90;55.30;;;;;;5019495;28;20403;-66
2022/07/09 01:58:21;;;;;;;2.63;2.10;;;22.90;55.30;;;;;;5019216;28;20422;-73
2022/07/09 02:00:47;;;;;;;2.15;1.80;;;22.90;55.10;;;;;;5019228;28;20971;-66
2022/07/09 02:03:13;;;;;;;2.25;1.70;;;22.90;55.20;;;;;;5016894;28;20978;-73
2022/07/09 02:05:38;;;;;;;2.47;1.83;;;22.90;55.10;;;;;;5016812;28;20487;-72
2022/07/09 02:08:04;;;;;;;2.43;1.90;;;22.90;55.00;;;;;;5017159;28;20432;-73
2022/07/09 02:10:30;;;;;;;2.58;2.10;;;22.90;55.10;;;;;;5015732;28;20387;-67
2022/07/09 02:12:55;;;;;;;2.63;1.80;;;22.90;55.10;;;;;;5018434;28;20430;-69
2022/07/09 02:15:21;;;;;;;2.30;2.10;;;22.90;55.10;;;;;;5014650;28;20728;-69
2022/07/09 02:17:47;;;;;;;2.67;2.00;;;22.90;55.10;;;;;;5018109;28;20510;-68
2022/07/09 02:20:13;;;;;;;2.33;1.90;;;22.90;55.20;;;;;;5019029;28;20583;-71
2022/07/09 02:22:38;;;;;;;2.13;1.90;;;22.90;55.30;;;;;;5017847;28;20424;-75
2022/07/09 02:25:05;;;;;;;2.10;1.90;;;22.90;55.30;;;;;;5017125;28;20440;-72
2022/07/09 02:27:31;;;;;;;2.00;1.80;;;22.90;55.30;;;;;;5016987;28;20466;-75
2022/07/09 02:29:56;;;;;;;2.17;1.90;;;22.90;55.30;;;;;;5018073;28;20792;-70
2022/07/09 02:32:22;;;;;;;2.70;2.10;;;22.90;55.30;;;;;;5016574;28;20487;-75
2022/07/09 02:34:48;;;;;;;3.23;1.90;;;22.90;55.30;;;;;;5016605;28;21158;-72
2022/07/09 02:37:13;;;;;;;2.50;2.00;;;22.90;55.40;;;;;;5016910;28;20412;-72
2022/07/09 02:39:39;;;;;;;2.27;1.90;;;22.90;55.40;;;;;;5016715;28;20397;-68
2022/07/09 02:42:05;;;;;;;2.25;1.95;;;22.80;55.30;;;;;;5015196;28;20507;-74
2022/07/09 02:44:30;;;;;;;2.90;2.00;;;22.80;55.30;;;;;;5017058;28;20442;-72
2022/07/09 02:46:56;;;;;;;2.58;1.80;;;22.90;55.30;;;;;;5016191;28;20988;-70
2022/07/09 02:49:23;;;;;;;2.65;1.90;;;22.80;55.30;;;;;;5017147;28;20387;-72
2022/07/09 02:51:48;;;;;;;3.33;1.95;;;22.80;55.20;;;;;;5018539;28;20939;-68
2022/07/09 02:54:14;;;;;;;3.05;1.73;;;22.80;55.20;;;;;;5016902;28;20389;-73
2022/07/09 02:56:40;;;;;;;2.10;1.90;;;22.90;55.20;;;;;;5017499;28;20390;-72
2022/07/09 02:59:05;;;;;;;2.13;1.90;;;22.80;55.20;;;;;;5018495;28;20407;-71
2022/07/09 03:01:31;;;;;;;2.38;1.80;;;22.80;55.00;;;;;;5015854;28;20430;-73
2022/07/09 03:03:57;;;;;;;2.50;1.90;;;22.80;55.00;;;;;;5015539;28;20418;-73
2022/07/09 03:06:23;;;;;;;2.00;1.80;;;22.80;55.10;;;;;;5016443;28;20405;-73
2022/07/09 03:08:48;;;;;;;2.60;1.90;;;22.80;55.10;;;;;;5014908;28;20411;-72
2022/07/09 03:11:14;;;;;;;3.28;2.08;;;22.80;55.10;;;;;;5018011;28;20441;-75
2022/07/09 03:13:40;;;;;;;2.00;1.80;;;22.80;55.10;;;;;;5015923;28;20405;-74
2022/07/09 03:16:06;;;;;;;2.30;1.73;;;22.80;55.20;;;;;;5006867;28;20768;-69
2022/07/09 03:18:33;;;;;;;2.15;1.80;;;22.80;55.30;;;;;;5007002;28;20435;-69
2022/07/09 03:20:59;;;;;;;2.28;1.73;;;22.80;55.20;;;;;;5013717;28;20521;-68
2022/07/09 03:23:25;;;;;;;3.05;1.80;;;22.80;55.20;;;;;;5014845;28;20400;-73
2022/07/09 03:25:50;;;;;;;2.60;1.90;;;22.80;55.30;;;;;;5008800;28;20751;-69
2022/07/09 03:28:16;;;;;;;2.25;2.05;;;22.80;55.40;;;;;;5008020;28;20766;-69
2022/07/09 03:30:42;;;;;;;3.67;2.00;;;22.80;55.40;;;;;;5008392;28;20393;-69
2022/07/09 03:33:07;;;;;;;2.30;1.88;;;22.80;55.40;;;;;;5008089;28;20423;-69
2022/07/09 03:35:33;;;;;;;2.88;2.10;;;22.80;55.40;;;;;;5008688;28;20921;-71
2022/07/09 03:37:59;;;;;;;2.40;2.10;;;22.80;55.40;;;;;;5008273;28;20392;-69
2022/07/09 03:40:24;;;;;;;2.65;1.88;;;22.80;55.30;;;;;;5008078;28;20392;-69
2022/07/09 03:42:50;;;;;;;2.00;1.80;;;22.80;55.40;;;;;;5028874;28;20423;-75
2022/07/09 03:45:16;;;;;;;2.50;1.80;;;22.80;55.30;;;;;;5031072;28;20788;-71
2022/07/09 03:47:41;;;;;;;2.27;1.93;;;22.80;55.20;;;;;;5031597;28;20453;-69
2022/07/09 03:50:07;;;;;;;2.53;1.70;;;22.80;55.20;;;;;;5030769;28;20415;-69
2022/07/09 03:52:33;;;;;;;2.33;1.90;;;22.80;55.20;;;;;;5030892;28;20905;-69
2022/07/09 03:54:58;;;;;;;2.67;2.00;;;22.80;55.20;;;;;;5031105;28;20421;-71
2022/07/09 03:57:24;;;;;;;2.90;1.90;;;22.80;55.30;;;;;;5031067;28;20544;-69
2022/07/09 03:59:50;;;;;;;2.00;1.70;;;22.80;55.20;;;;;;5029659;28;20745;-75
2022/07/09 04:02:16;;;;;;;2.28;1.80;;;22.80;55.40;;;;;;5028919;28;20442;-74
2022/07/09 04:04:43;;;;;;;2.10;1.90;;;22.80;55.40;;;;;;5029650;28;20387;-70
2022/07/09 04:07:09;;;;;;;2.10;1.73;;;22.70;55.40;;;;;;5029529;28;20902;-73
2022/07/09 04:09:34;;;;;;;2.45;1.80;;;22.70;55.50;;;;;;5030671;28;20394;-72
2022/07/09 04:12:00;;;;;;;3.22;1.98;;;22.80;55.50;;;;;;5030481;28;20395;-69
2022/07/09 04:14:26;;;;;;;2.55;1.95;;;22.80;55.50;;;;;;5030636;28;20399;-72
2022/07/09 04:16:51;;;;;;;2.50;1.83;;;22.80;55.40;;;;;;5030572;28;20401;-69
2022/07/09 04:19:17;;;;;;;2.15;1.90;;;22.80;55.50;;;;;;5030679;28;20506;-69
2022/07/09 04:21:43;;;;;;;2.30;1.93;;;22.70;55.40;;;;;;5030594;28;20430;-70
2022/07/09 04:24:08;;;;;;;2.40;1.80;;;22.80;55.50;;;;;;5030228;28;20873;-72
2022/07/09 04:26:34;;;;;;;3.25;2.00;;;22.80;55.40;;;;;;5031117;28;20391;-76
2022/07/09 04:28:59;;;;;;;2.37;1.80;;;22.70;55.40;;;;;;5034104;28;20395;-70
2022/07/09 04:31:25;;;;;;;2.10;1.90;;;22.70;55.40;;;;;;5034187;28;20441;-69
2022/07/09 04:33:50;;;;;;;2.42;1.85;;;22.80;55.40;;;;;;5032667;28;20422;-73
2022/07/09 04:36:16;;;;;;;2.20;2.00;;;22.80;55.60;;;;;;5032992;28;20387;-69
2022/07/09 04:38:42;;;;;;;2.38;2.03;;;22.70;55.50;;;;;;5032456;28;20449;-75
2022/07/09 04:41:08;;;;;;;2.58;1.98;;;22.70;55.50;;;;;;5033966;28;20410;-71
2022/07/09 04:43:33;;;;;;;2.63;1.80;;;22.70;55.60;;;;;;5034056;28;20431;-72
2022/07/09 04:45:59;;;;;;;2.93;2.00;;;22.70;55.60;;;;;;5032675;28;20418;-75
2022/07/09 04:48:25;;;;;;;3.08;1.98;;;22.70;55.70;;;;;;5033178;28;20410;-74
2022/07/09 04:50:51;;;;;;;2.22;1.55;;;22.70;55.70;;;;;;5033141;28;20919;-69
2022/07/09 04:53:17;;;;;;;2.13;1.85;;;22.70;55.70;;;;;;5033675;28;20448;-68
2022/07/09 04:55:42;;;;;;;2.10;1.80;;;22.70;55.70;;;;;;5032189;28;20391;-75
2022/07/09 04:58:09;;;;;;;2.03;1.60;;;22.80;55.80;;;;;;5033808;28;20395;-70
2022/07/09 05:00:35;;;;;;;2.22;1.80;;;22.70;55.70;;;;;;5033379;28;20399;-73
2022/07/09 05:03:00;;;;;;;2.00;1.80;;;22.70;55.70;;;;;;5033611;28;20396;-75
2022/07/09 05:05:26;;;;;;;2.00;1.80;;;22.70;55.70;;;;;;5033217;28;20914;-70
2022/07/09 05:07:52;;;;;;;2.20;1.70;;;22.70;55.70;;;;;;5033473;28;20895;-70
2022/07/09 05:10:18;;;;;;;2.10;1.90;;;22.70;55.70;;;;;;5032801;28;20391;-72
2022/07/09 05:12:43;;;;;;;3.63;2.05;;;22.70;55.80;;;;;;5032676;28;20406;-74
2022/07/09 05:15:10;;;;;;;2.00;1.80;;;22.70;55.80;;;;;;5013849;28;20393;-73
2022/07/09 05:17:37;;;;;;;3.08;1.67;;;22.70;55.80;;;;;;5014144;28;20431;-69
2022/07/09 05:20:04;;;;;;;4.20;1.92;;;22.70;55.70;;;;;;5012863;28;20459;-74
2022/07/09 05:22:34;;;;;;;2.80;1.70;;;22.70;56.20;;;;;;5012992;28;20428;-75
2022/07/09 05:25:00;;;;;;;3.03;1.90;;;22.80;56.30;;;;;;5013304;28;20403;-75
2022/07/09 05:27:27;;;;;;;3.00;2.08;;;22.80;56.30;;;;;;5013207;28;20476;-73
2022/07/09 05:29:53;;;;;;;9.40;5.15;;;22.80;56.30;;;;;;5013093;28;20475;-73
2022/07/09 05:32:19;;;;;;;7.75;4.03;;;22.90;57.90;;;;;;5011455;28;20484;-72
2022/07/09 05:34:45;;;;;;;7.47;3.37;;;22.90;57.50;;;;;;5012985;28;20452;-74
2022/07/09 05:37:10;;;;;;;5.60;3.40;;;22.90;57.10;;;;;;5014457;28;20871;-74
2022/07/09 05:39:36;;;;;;;7.22;4.25;;;22.90;56.70;;;;;;5011851;28;20443;-70
2022/07/09 05:42:02;;;;;;;6.60;3.50;;;22.90;57.00;;;;;;5012595;28;20431;-70
2022/07/09 05:44:27;;;;;;;7.65;3.40;;;22.90;57.10;;;;;;5010814;28;20393;-73
2022/07/09 05:46:53;;;;;;;4.90;2.80;;;22.90;56.70;;;;;;5012742;28;20396;-74
2022/07/09 05:49:19;;;;;;;4.13;2.80;;;22.90;56.90;;;;;;5011578;28;20450;-74
2022/07/09 05:51:45;;;;;;;4.90;2.80;;;22.90;57.20;;;;;;5012739;28;20400;-73
2022/07/09 05:54:10;;;;;;;6.00;2.67;;;22.90;57.30;;;;;;5012721;28;20467;-73
2022/07/09 05:56:36;;;;;;;4.40;2.60;;;22.80;57.30;;;;;;5011936;28;20400;-73
2022/07/09 05:59:03;;;;;;;3.83;2.55;;;22.80;57.60;;;;;;5011759;28;20389;-73
2022/07/09 06:01:29;;;;;;;4.90;2.45;;;22.90;58.00;;;;;;5011252;28;20408;-73
2022/07/09 06:03:55;;;;;;;6.95;2.58;;;22.80;57.40;;;;;;5011257;28;20401;-74
2022/07/09 06:06:20;;;;;;;6.65;2.88;;;22.80;57.40;;;;;;5012096;28;20440;-73
2022/07/09 06:08:46;;;;;;;4.97;2.83;;;22.80;57.50;;;;;;5012311;28;20879;-73
2022/07/09 06:11:12;;;;;;;4.00;2.40;;;22.80;57.50;;;;;;5012308;28;20380;-69
2022/07/09 06:13:37;;;;;;;4.13;2.47;;;22.80;57.60;;;;;;5012327;28;20941;-73
2022/07/09 06:16:03;;;;;;;5.03;3.00;;;22.80;57.70;;;;;;5010958;28;20432;-73
2022/07/09 06:18:29;;;;;;;5.30;2.50;;;22.80;58.00;;;;;;5011725;28;20879;-74
2022/07/09 06:20:55;;;;;;;6.15;2.50;;;22.80;57.80;;;;;;5019828;28;20390;-70
2022/07/09 06:23:21;;;;;;;8.70;2.80;;;22.80;58.10;;;;;;5032028;28;20400;-73
2022/07/09 06:25:47;;;;;;;4.38;2.60;;;22.80;58.00;;;;;;5030387;28;20391;-72
2022/07/09 06:28:12;;;;;;;3.90;2.40;;;22.80;57.80;;;;;;5024000;28;20471;-67
2022/07/09 06:30:38;;;;;;;4.70;2.60;;;22.90;58.30;;;;;;5011868;28;20393;-70
2022/07/09 06:33:04;;;;;;;5.82;2.53;;;22.90;58.00;;;;;;5010432;28;20423;-72
2022/07/09 06:35:30;;;;;;;6.03;2.53;;;22.80;58.10;;;;;;5012281;28;20393;-71
2022/07/09 06:37:56;;;;;;;6.63;2.40;;;22.80;58.10;;;;;;5011561;28;20396;-71
2022/07/09 06:40:22;;;;;;;3.15;2.20;;;22.80;58.20;;;;;;5011556;28;20438;-71
2022/07/09 06:42:48;;;;;;;4.85;2.20;;;22.80;58.10;;;;;;5009363;28;20421;-71
2022/07/09 06:45:14;;;;;;;5.30;2.40;;;22.90;58.10;;;;;;5011932;28;20986;-71
2022/07/09 06:47:40;;;;;;;7.40;2.17;;;22.90;58.10;;;;;;5011686;28;20539;-72
2022/07/09 06:50:06;;;;;;;5.80;2.38;;;22.90;58.20;;;;;;5011006;28;20484;-71
2022/07/09 06:52:32;;;;;;;5.60;2.33;;;23.00;58.30;;;;;;5010895;28;20405;-71
2022/07/09 06:54:58;;;;;;;5.40;2.20;;;23.00;57.50;;;;;;5011620;28;20392;-72
2022/07/09 06:57:24;;;;;;;5.55;2.30;;;23.00;57.50;;;;;;5010098;28;20405;-69
2022/07/09 06:59:49;;;;;;;5.85;2.22;;;22.90;57.50;;;;;;5011387;28;20389;-69
2022/07/09 07:02:18;;;;;;;4.30;2.38;;;22.90;57.70;;;;;;5011183;28;20475;-70
2022/07/09 07:04:43;;;;;;;6.65;2.55;;;22.90;57.30;;;;;;5011295;28;20935;-70
2022/07/09 07:07:09;;;;;;;4.57;2.40;;;22.90;56.70;;;;;;5011404;28;20421;-69
2022/07/09 07:09:35;;;;;;;7.17;2.30;;;22.90;56.60;;;;;;5011833;28;20446;-68
2022/07/09 07:12:01;;;;;;;6.13;2.30;;;22.80;56.60;;;;;;5011161;28;20496;-68
2022/07/09 07:14:26;;;;;;;5.57;2.50;;;22.80;56.30;;;;;;5010941;28;20407;-70
2022/07/09 07:16:53;;;;;;;4.82;2.30;;;22.80;56.00;;;;;;5011032;28;20491;-69
2022/07/09 07:19:20;;;;;;;3.72;2.13;;;22.80;55.90;;;;;;5011236;28;20399;-67
2022/07/09 07:21:47;;;;;;;4.20;2.13;;;22.80;56.10;;;;;;5011219;28;20424;-68
2022/07/09 07:24:13;;;;;;;3.92;2.38;;;22.80;56.10;;;;;;5010214;28;20381;-68
2022/07/09 07:26:39;;;;;;;5.57;2.17;;;22.80;56.10;;;;;;5010527;28;20774;-70
2022/07/09 07:29:05;;;;;;;3.88;2.22;;;22.80;56.00;;;;;;5010127;28;20408;-69
2022/07/09 07:31:31;;;;;;;3.33;2.10;;;22.80;56.20;;;;;;5011213;28;20401;-68
2022/07/09 07:33:57;;;;;;;6.33;2.07;;;22.80;56.10;;;;;;5010884;28;20960;-70
2022/07/09 07:36:23;;;;;;;4.55;2.13;;;22.80;56.10;;;;;;5010678;28;20384;-68
2022/07/09 07:38:49;;;;;;;3.93;2.23;;;22.80;56.20;;;;;;5011387;28;20783;-69
2022/07/09 07:41:16;;;;;;;4.22;2.20;;;22.80;56.10;;;;;;5011160;28;20736;-69
2022/07/09 07:43:42;;;;;;;5.47;2.42;;;22.80;56.30;;;;;;5011049;28;20443;-67
2022/07/09 07:46:08;;;;;;;5.70;2.20;;;22.80;56.30;;;;;;5011223;28;20467;-69
2022/07/09 07:48:35;;;;;;;3.87;2.30;;;22.80;56.00;;;;;;5010382;28;20408;-68
2022/07/09 07:51:02;;;;;;;3.03;1.90;;;22.80;55.90;;;;;;5011220;28;20423;-69
2022/07/09 07:53:31;;;;;;;4.97;2.20;;;22.80;55.80;;;;;;5009793;28;20484;-71
2022/07/09 07:55:56;;;;;;;4.32;1.70;;;22.80;55.80;;;;;;5011098;28;20403;-70
2022/07/09 07:58:22;;;;;;;3.03;1.90;;;22.80;55.80;;;;;;5010755;28;20472;-69
2022/07/09 08:00:48;;;;;;;4.10;2.07;;;22.80;55.60;;;;;;5016683;28;20399;-70
2022/07/09 08:03:13;;;;;;;3.45;2.10;;;22.80;55.50;;;;;;5034691;28;20461;-69
2022/07/09 08:05:39;;;;;;;3.87;2.03;;;22.80;55.70;;;;;;5034434;28;20383;-69
2022/07/09 08:08:05;;;;;;;3.40;1.80;;;22.80;55.60;;;;;;5032336;28;20402;-69
2022/07/09 08:10:31;;;;;;;2.80;1.80;;;22.80;55.60;;;;;;5032692;28;20399;-70
2022/07/09 08:12:56;;;;;;;3.33;2.05;;;22.80;55.70;;;;;;5032966;28;20421;-72
2022/07/09 08:15:22;;;;;;;3.00;2.00;;;22.80;56.00;;;;;;5033668;28;20745;-69
2022/07/09 08:17:47;;;;;;;3.28;1.95;;;22.80;56.00;;;;;;5032861;28;20927;-70
2022/07/09 08:20:13;;;;;;;4.43;2.23;;;22.80;56.40;;;;;;5034137;28;20386;-69
2022/07/09 08:22:39;;;;;;;4.73;2.20;;;22.80;55.80;;;;;;5033379;28;20469;-69
2022/07/09 08:25:05;;;;;;;4.43;2.28;;;22.80;55.90;;;;;;5033805;28;20734;-70
2022/07/09 08:27:30;;;;;;;5.45;2.35;;;22.90;55.40;;;;;;5034149;28;20706;-70
2022/07/09 08:29:56;;;;;;;5.37;2.40;;;22.90;56.40;;;;;;5033710;28;20391;-70
2022/07/09 08:32:22;;;;;;;6.00;3.00;;;23.10;56.60;;;;;;5033726;28;20399;-68
2022/07/09 08:34:47;;;;;;;5.30;2.87;;;23.20;57.50;;;;;;5033461;28;20399;-70
2022/07/09 08:37:13;;;;;;;6.13;2.63;;;23.30;57.60;;;;;;5033758;28;20884;-71
2022/07/09 08:39:38;;;;;;;4.63;2.60;;;23.30;57.20;;;;;;5033632;28;20395;-70
2022/07/09 08:42:12;;;;;;;5.80;2.60;;;23.30;57.20;;;;;;5033439;28;20477;-68
2022/07/09 08:44:43;;;;;;;3.90;2.47;;;23.30;56.90;;;;;;5032598;28;20397;-69
2022/07/09 08:47:15;;;;;;;4.80;2.47;;;23.20;56.80;;;;;;5033489;28;20402;-72
2022/07/09 08:49:42;;;;;;;3.65;2.40;;;23.20;56.90;;;;;;5033445;28;20395;-70
2022/07/09 08:52:10;;;;;;;4.75;2.40;;;23.20;56.60;;;;;;5033492;28;20415;-72
2022/07/09 08:54:39;;;;;;;2.83;2.13;;;23.20;56.20;;;;;;5032921;28;20415;-68
2022/07/09 08:57:05;;;;;;;4.10;2.20;;;23.20;56.00;;;;;;5065478;28;20423;-69
2022/07/09 08:59:32;;;;;;;3.40;2.33;;;23.20;55.90;;;;;;5033420;28;20522;-71
2022/07/09 09:02:02;;;;;;;3.45;2.00;;;23.20;55.80;;;;;;5033450;28;20722;-71
2022/07/09 09:04:28;;;;;;;3.08;1.98;;;23.20;55.90;;;;;;5032665;28;20394;-71
2022/07/09 09:06:54;;;;;;;3.10;2.20;;;23.20;55.90;;;;;;5033243;28;20398;-70
2022/07/09 09:09:20;;;;;;;3.53;1.83;;;23.20;56.10;;;;;;5015593;28;20407;-71
2022/07/09 09:11:49;;;;;;;3.00;2.25;;;23.20;55.90;;;;;;5032023;28;20419;-68
2022/07/09 09:14:22;;;;;;;3.35;1.95;;;23.20;56.00;;;;;;5032630;28;20395;-69
2022/07/09 09:16:48;;;;;;;3.60;2.10;;;23.30;56.10;;;;;;5032911;28;20788;-69
2022/07/09 09:19:14;;;;;;;2.87;1.80;;;23.30;56.10;;;;;;5031949;28;20394;-70
2022/07/09 09:21:39;;;;;;;2.63;2.00;;;23.30;56.00;;;;;;5031746;28;20501;-70
2022/07/09 09:24:06;;;;;;;3.50;2.00;;;23.30;55.90;;;;;;5033083;28;20395;-68
2022/07/09 09:26:33;;;;;;;3.88;2.28;;;23.30;55.90;;;;;;5032166;28;20394;-72
2022/07/09 09:29:03;;;;;;;3.57;2.10;;;23.30;55.80;;;;;;5137574;22;20513;-68
2022/07/09 09:31:34;;;;;;;4.18;2.30;;;23.40;55.70;;;;;;5045652;28;20465;-71
2022/07/09 09:34:08;;;;;;;4.50;2.13;;;23.40;55.50;;;;;;5031371;28;20392;-71
2022/07/09 09:36:39;;;;;;;3.92;2.15;;;23.40;55.50;;;;;;5032196;28;20395;-71
2022/07/09 09:39:18;;;;;;;4.28;2.70;;;23.40;55.30;;;;;;5032530;28;20383;-71
2022/07/09 09:41:49;;;;;;;5.93;2.60;;;23.50;55.70;;;;;;5032336;28;20422;-71
2022/07/09 09:44:24;;;;;;;4.90;2.28;;;23.60;55.60;;;;;;5032632;28;20378;-69
2022/07/09 09:46:50;;;;;;;6.40;2.40;;;23.60;55.00;;;;;;5028868;28;20433;-72
2022/07/09 09:49:16;;;;;;;4.38;2.22;;;23.70;55.00;;;;;;5012814;28;20393;-69
2022/07/09 09:51:45;;;;;;;5.13;2.47;;;23.70;54.40;;;;;;5012621;28;20439;-71
2022/07/09 09:54:13;;;;;;;5.03;2.38;;;23.70;54.70;;;;;;5011399;28;20401;-70
2022/07/09 09:56:39;;;;;;;4.80;2.10;;;23.70;54.40;;;;;;5010764;28;20439;-72
2022/07/09 09:59:06;;;;;;;4.88;2.33;;;23.70;54.30;;;;;;5012619;28;20400;-72
2022/07/09 10:01:33;;;;;;;4.55;2.40;;;23.70;53.70;;;;;;5012268;28;20424;-70
2022/07/09 10:03:59;;;;;;;3.40;2.10;;;23.70;53.70;;;;;;5011557;28;20891;-71
2022/07/09 10:06:26;;;;;;;4.70;2.30;;;23.70;53.20;;;;;;5010315;28;20409;-71
2022/07/09 10:08:55;;;;;;;5.07;2.15;;;23.80;53.80;;;;;;5010839;28;20441;-71
2022/07/09 10:11:22;;;;;;;4.38;2.30;;;23.80;52.90;;;;;;5012328;28;20400;-71
2022/07/09 10:13:56;;;;;;;3.10;2.30;;;23.80;52.80;;;;;;5012180;28;20392;-71
2022/07/09 10:16:39;;;;;;;4.53;2.50;;;23.80;52.50;;;;;;5011821;28;20447;-70
2022/07/09 10:19:05;;;;;;;4.32;2.25;;;23.90;52.50;;;;;;5011022;28;20469;-70
2022/07/09 10:21:41;;;;;;;3.85;2.33;;;23.90;52.80;;;;;;5010969;28;20412;-73
2022/07/09 10:24:09;;;;;;;6.90;2.45;;;23.90;53.20;;;;;;5011237;28;20479;-72
2022/07/09 10:26:48;;;;;;;3.78;2.20;;;23.90;52.90;;;;;;5010028;28;20459;-71
2022/07/09 10:29:25;;;;;;;5.75;2.25;;;24.00;53.20;;;;;;5011602;28;20890;-69
2022/07/09 10:31:51;;;;;;;5.18;2.15;;;24.00;52.80;;;;;;5011793;28;20453;-69
2022/07/09 10:34:51;;;;;;;7.28;2.30;;;24.10;52.50;;;;;;5010577;28;20397;-70
2022/07/09 10:37:17;;;;;;;4.30;2.10;;;24.10;52.60;;;;;;5011811;28;20411;-70
2022/07/09 10:39:53;;;;;;;4.90;2.25;;;24.20;52.40;;;;;;5010869;28;20393;-72
2022/07/09 10:42:21;;;;;;;5.25;2.00;;;24.20;52.40;;;;;;5011619;28;20417;-71
2022/07/09 10:44:49;;;;;;;6.15;2.13;;;24.30;52.20;;;;;;5011418;28;20930;-72
2022/07/09 10:47:15;;;;;;;5.88;2.13;;;24.30;52.00;;;;;;5011586;28;20758;-72
2022/07/09 10:49:41;;;;;;;5.82;2.30;;;24.30;51.70;;;;;;5011588;28;20401;-73
2022/07/09 10:52:08;;;;;;;5.27;2.10;;;24.40;51.40;;;;;;5011488;28;20882;-71
2022/07/09 10:54:44;;;;;;;5.88;2.30;;;24.40;51.40;;;;;;5010901;28;20397;-71
2022/07/09 10:57:10;;;;;;;5.93;2.10;;;24.50;51.50;;;;;;5011675;28;20944;-72
2022/07/09 10:59:37;;;;;;;5.18;2.13;;;24.60;51.80;;;;;;5010833;28;20385;-68
2022/07/09 11:02:02;;;;;;;6.60;2.00;;;24.60;51.00;;;;;;5009604;28;20917;-70
2022/07/09 11:04:30;;;;;;;4.70;1.90;;;24.60;50.50;;;;;;5010854;28;20389;-69
2022/07/09 11:06:56;;;;;;;5.80;2.10;;;24.60;50.60;;;;;;5010030;28;20408;-71
2022/07/09 11:09:25;;;;;;;4.80;1.92;;;24.70;50.90;;;;;;5011534;28;20439;-70
2022/07/09 11:11:50;;;;;;;4.28;2.20;;;24.70;51.00;;;;;;5010083;28;20389;-71
2022/07/09 11:14:16;;;;;;;3.92;1.90;;;24.80;51.10;;;;;;5009795;28;20455;-70
2022/07/09 11:16:42;;;;;;;5.67;2.00;;;24.90;51.30;;;;;;5010845;28;20393;-68
2022/07/09 11:19:19;;;;;;;4.20;1.90;;;25.00;51.30;;;;;;5011206;28;20739;-71
2022/07/09 11:21:45;;;;;;;5.43;1.88;;;25.00;51.20;;;;;;5011714;28;20420;-69
2022/07/09 11:24:15;;;;;;;4.93;2.00;;;25.10;51.30;;;;;;5010262;28;20451;-70
2022/07/09 11:26:41;;;;;;;5.88;2.17;;;25.10;51.30;;;;;;5010746;28;20428;-72
2022/07/09 11:29:10;;;;;;;5.32;2.00;;;25.10;51.30;;;;;;5009918;28;20440;-73
2022/07/09 11:31:37;;;;;;;4.10;1.90;;;25.00;51.70;;;;;;5011194;28;20443;-72
2022/07/09 11:34:15;;;;;;;4.53;1.85;;;24.80;52.10;;;;;;5010950;28;20395;-69
2022/07/09 11:36:43;;;;;;;3.58;1.70;;;24.80;52.30;;;;;;5013033;28;20870;-73
2022/07/09 11:39:09;;;;;;;6.13;1.90;;;24.70;52.50;;;;;;5015228;28;20392;-74
2022/07/09 11:41:44;;;;;;;5.40;1.80;;;24.60;52.80;;;;;;5014912;28;20906;-71
2022/07/09 11:44:13;;;;;;;3.58;1.80;;;24.60;53.10;;;;;;5015202;28;20385;-73
2022/07/09 11:46:39;;;;;;;3.97;2.00;;;24.50;53.10;;;;;;5046132;28;20397;-73
2022/07/09 11:49:15;;;;;;;3.58;1.65;;;24.40;53.10;;;;;;5014693;28;20392;-70
2022/07/09 11:51:41;;;;;;;6.32;2.00;;;24.40;53.30;;;;;;5013641;28;20500;-71
2022/07/09 11:54:07;;;;;;;6.00;1.93;;;24.30;53.30;;;;;;5014932;28;20389;-73
2022/07/09 11:56:47;;;;;;;3.80;1.80;;;24.30;53.40;;;;;;5014570;28;20395;-67
2022/07/09 11:59:13;;;;;;;4.28;1.85;;;24.30;53.50;;;;;;5014821;28;20878;-71
2022/07/09 12:01:39;;;;;;;3.45;1.50;;;24.30;53.50;;;;;;5013425;28;20417;-73
2022/07/09 12:04:05;;;;;;;3.20;1.70;;;24.30;53.50;;;;;;5014717;28;20389;-71
2022/07/09 12:06:32;;;;;;;4.25;1.58;;;24.30;53.60;;;;;;5014534;28;20423;-71
2022/07/09 12:09:03;;;;;;;3.08;1.70;;;24.30;53.60;;;;;;5014299;28;20416;-73
2022/07/09 12:11:30;;;;;;;3.47;1.77;;;24.30;53.70;;;;;;5014628;28;20397;-73
2022/07/09 12:13:56;;;;;;;4.03;1.75;;;24.30;53.70;;;;;;5014631;28;20404;-67
2022/07/09 12:16:22;;;;;;;3.97;1.60;;;24.30;53.80;;;;;;5014529;28;20401;-74
2022/07/09 12:18:47;;;;;;;3.50;1.93;;;24.30;53.90;;;;;;5013864;28;20431;-74
2022/07/09 12:21:13;;;;;;;3.40;1.80;;;24.20;53.90;;;;;;5016710;28;20403;-73
2022/07/09 12:23:39;;;;;;;3.05;1.70;;;24.20;53.90;;;;;;5034495;28;20387;-68
2022/07/09 12:26:04;;;;;;;2.93;1.97;;;24.20;53.80;;;;;;5034486;28;20379;-72
2022/07/09 12:28:30;;;;;;;4.40;1.95;;;24.20;53.90;;;;;;5033422;28;20753;-73
2022/07/09 12:30:55;;;;;;;3.07;1.73;;;24.10;54.00;;;;;;5033892;28;20395;-72
2022/07/09 12:33:21;;;;;;;2.67;1.70;;;24.10;54.10;;;;;;5065813;28;20395;-67
2022/07/09 12:35:47;;;;;;;2.90;2.00;;;24.10;54.10;;;;;;5033682;28;20387;-70
2022/07/09 12:38:13;;;;;;;3.60;1.90;;;24.10;54.20;;;;;;5031806;28;20399;-74
2022/07/09 12:40:38;;;;;;;3.30;1.60;;;24.00;54.20;;;;;;5032854;28;20391;-74
2022/07/09 12:43:04;;;;;;;2.83;1.80;;;24.10;54.30;;;;;;5032721;28;20482;-73
2022/07/09 12:45:30;;;;;;;6.07;2.17;;;24.00;54.30;;;;;;5033879;28;20730;-74